createdAt,value
2018-06-05T00:00:31.844Z,36.13
2018-06-05T00:03:00.256Z,34.60
2018-06-05T00:05:28.808Z,34.37
2018-06-05T00:07:57.260Z,37.87
2018-06-05T00:10:25.657Z,35.90
2018-06-05T00:12:54.140Z,36.30
2018-06-05T00:15:22.580Z,38.53
2018-06-05T00:17:51.127Z,36.93
2018-06-05T00:20:19.588Z,36.80
2018-06-05T00:22:48.018Z,33.17
2018-06-05T00:25:16.426Z,37.40
2018-06-05T00:27:44.868Z,40.00
2018-06-05T00:30:13.429Z,35.80
2018-06-05T00:32:41.835Z,36.40
2018-06-05T00:35:10.359Z,35.93
2018-06-05T00:37:38.834Z,37.20
2018-06-05T00:40:07.237Z,36.77
2018-06-05T00:42:35.662Z,35.07
2018-06-05T00:45:04.117Z,34.27
2018-06-05T00:47:32.590Z,36.10
2018-06-05T00:50:01.051Z,34.87
2018-06-05T00:52:29.517Z,37.80
2018-06-05T00:54:57.908Z,35.73
2018-06-05T00:57:26.607Z,36.60
2018-06-05T00:59:55.019Z,35.90
2018-06-05T01:02:23.429Z,35.17
2018-06-05T01:04:51.859Z,34.90
2018-06-05T01:07:20.300Z,37.93
2018-06-05T01:09:48.720Z,33.60
2018-06-05T01:12:17.127Z,33.70
2018-06-05T01:14:45.586Z,36.80
2018-06-05T01:17:14.072Z,35.63
2018-06-05T01:19:42.499Z,34.20
2018-06-05T01:22:10.899Z,37.37
2018-06-05T01:24:39.352Z,40.30
2018-06-05T01:27:12.264Z,38.70
2018-06-05T01:29:40.704Z,39.07
2018-06-05T01:32:09.113Z,38.13
2018-06-05T01:34:37.532Z,39.33
2018-06-05T01:37:06.133Z,40.57
2018-06-05T01:39:34.585Z,38.77
2018-06-05T01:42:02.983Z,40.80
2018-06-05T01:44:31.445Z,40.10
2018-06-05T01:47:00.161Z,44.03
2018-06-05T01:49:34.099Z,40.23
2018-06-05T01:52:02.499Z,41.50
2018-06-05T01:54:31.230Z,43.07
2018-06-05T01:56:59.651Z,44.10
2018-06-05T01:59:28.063Z,44.10
2018-06-05T02:01:56.640Z,42.80
2018-06-05T02:04:25.074Z,41.67
2018-06-05T02:06:53.484Z,44.87
2018-06-05T02:09:21.920Z,43.20
2018-06-05T02:11:50.370Z,45.73
2018-06-05T02:14:18.839Z,45.27
2018-06-05T02:16:47.302Z,43.93
2018-06-05T02:19:15.743Z,47.57
2018-06-05T02:21:44.280Z,43.23
2018-06-05T02:24:12.768Z,45.73
2018-06-05T02:26:41.203Z,45.73
2018-06-05T02:29:09.596Z,44.80
2018-06-05T02:31:38.023Z,43.10
2018-06-05T02:34:06.503Z,42.73
2018-06-05T02:36:35.007Z,43.03
2018-06-05T02:39:05.224Z,43.40
2018-06-05T02:41:33.676Z,39.30
2018-06-05T02:44:02.100Z,42.70
2018-06-05T02:46:30.669Z,41.33
2018-06-05T02:48:59.093Z,40.60
2018-06-05T02:51:27.525Z,38.70
2018-06-05T02:53:55.952Z,40.43
2018-06-05T02:56:24.389Z,39.40
2018-06-05T02:58:52.874Z,41.17
2018-06-05T03:01:21.426Z,41.43
2018-06-05T03:03:49.815Z,41.80
2018-06-05T03:06:18.227Z,41.63
2018-06-05T03:08:46.615Z,43.60
2018-06-05T03:11:16.172Z,41.83
2018-06-05T03:13:44.800Z,43.10
2018-06-05T03:16:13.647Z,40.07
2018-06-05T03:18:42.013Z,41.70
2018-06-05T03:21:10.516Z,41.50
2018-06-05T03:23:39.031Z,40.30
2018-06-05T03:26:07.447Z,40.30
2018-06-05T03:28:35.952Z,42.10
2018-06-05T03:31:04.331Z,41.17
2018-06-05T03:33:32.462Z,42.83
2018-06-05T03:36:01.046Z,41.30
2018-06-05T03:38:29.424Z,41.00
2018-06-05T03:40:57.845Z,40.90
2018-06-05T03:43:26.356Z,42.03
2018-06-05T03:45:54.733Z,47.47
2018-06-05T03:48:23.154Z,43.70
2018-06-05T03:50:51.639Z,47.87
2018-06-05T03:53:20.025Z,47.93
2018-06-05T03:55:48.407Z,48.93
2018-06-05T03:58:16.895Z,47.40
2018-06-05T04:00:45.291Z,47.90
2018-06-05T04:03:13.757Z,47.30
2018-06-05T04:05:42.213Z,43.30
2018-06-05T04:08:10.736Z,46.60
2018-06-05T04:10:39.115Z,44.57
2018-06-05T04:13:07.493Z,41.07
2018-06-05T04:15:35.860Z,41.67
2018-06-05T04:18:04.259Z,41.67
2018-06-05T04:20:32.664Z,42.60
2018-06-05T04:23:01.063Z,43.03
2018-06-05T04:25:29.419Z,41.67
2018-06-05T04:27:57.935Z,40.30
2018-06-05T04:30:26.347Z,42.60
2018-06-05T04:32:54.795Z,43.30
2018-06-05T04:35:23.161Z,49.10
2018-06-05T04:37:51.540Z,49.30
2018-06-05T04:40:20.011Z,49.43
2018-06-05T04:42:48.498Z,45.27
2018-06-05T04:45:16.876Z,47.00
2018-06-05T04:47:45.447Z,50.13
2018-06-05T04:50:13.881Z,48.30
2018-06-05T04:52:42.260Z,47.13
2018-06-05T04:55:10.636Z,50.53
2018-06-05T04:57:39.118Z,50.10
2018-06-05T05:00:07.503Z,53.10
2018-06-05T05:02:35.887Z,52.97
2018-06-05T05:05:04.372Z,53.13
2018-06-05T05:07:32.881Z,52.23
2018-06-05T05:10:01.260Z,55.13
2018-06-05T05:12:29.709Z,50.87
2018-06-05T05:14:58.069Z,53.40
2018-06-05T05:17:26.448Z,55.07
2018-06-05T05:19:54.822Z,54.17
2018-06-05T05:22:23.192Z,51.17
2018-06-05T05:24:51.643Z,51.40
2018-06-05T05:27:20.036Z,52.30
2018-06-05T05:29:48.456Z,48.00
2018-06-05T05:32:16.898Z,53.20
2018-06-05T05:34:45.328Z,51.00
2018-06-05T05:37:13.691Z,53.50
2018-06-05T05:39:42.068Z,50.77
2018-06-05T05:42:10.424Z,50.83
2018-06-05T05:44:38.791Z,51.60
2018-06-05T05:47:07.467Z,54.10
2018-06-05T05:49:35.917Z,52.20
2018-06-05T05:52:04.492Z,49.67
2018-06-05T05:54:32.959Z,52.20
2018-06-05T05:57:01.357Z,51.17
2018-06-05T05:59:29.753Z,53.23
2018-06-05T06:01:58.171Z,52.30
2018-06-05T06:04:26.594Z,52.73
2018-06-05T06:06:55.009Z,54.23
2018-06-05T06:09:23.526Z,52.53
2018-06-05T06:11:51.900Z,51.13
2018-06-05T06:14:20.359Z,54.07
2018-06-05T06:16:48.741Z,50.30
2018-06-05T06:19:17.253Z,49.73
2018-06-05T06:21:45.612Z,49.37
2018-06-05T06:24:14.010Z,48.50
2018-06-05T06:26:42.364Z,50.17
2018-06-05T06:29:10.754Z,53.00
2018-06-05T06:31:39.128Z,50.03
2018-06-05T06:34:07.505Z,47.87
2018-06-05T06:36:35.861Z,50.73
2018-06-05T06:39:06.533Z,51.83
2018-06-05T06:41:34.899Z,51.90
2018-06-05T06:44:03.553Z,50.40
2018-06-05T06:46:31.936Z,49.73
2018-06-05T06:49:00.393Z,53.83
2018-06-05T06:51:28.775Z,56.20
2018-06-05T06:53:57.200Z,55.57
2018-06-05T06:56:25.568Z,52.60
2018-06-05T06:58:54.009Z,49.13
2018-06-05T07:01:22.419Z,50.37
2018-06-05T07:03:50.840Z,43.03
2018-06-05T07:06:19.367Z,36.57
2018-06-05T07:08:47.757Z,32.30
2018-06-05T07:11:16.668Z,32.90
2018-06-05T07:13:45.145Z,32.20
2018-06-05T07:16:13.517Z,30.80
2018-06-05T07:18:41.872Z,32.13
2018-06-05T07:21:10.255Z,31.83
2018-06-05T07:23:38.715Z,35.23
2018-06-05T07:26:07.111Z,32.77
2018-06-05T07:28:35.491Z,34.40
2018-06-05T07:31:03.875Z,31.73
2018-06-05T07:33:32.248Z,35.90
2018-06-05T07:36:00.624Z,37.83
2018-06-05T07:38:28.979Z,37.37
2018-06-05T07:40:57.348Z,39.37
2018-06-05T07:43:25.723Z,42.03
2018-06-05T07:45:54.096Z,44.40
2018-06-05T07:48:22.455Z,45.33
2018-06-05T07:50:50.828Z,43.37
2018-06-05T07:53:19.181Z,43.40
2018-06-05T07:55:47.584Z,44.33
2018-06-05T07:58:16.014Z,37.07
2018-06-05T08:00:44.469Z,39.10
2018-06-05T08:03:13.064Z,40.37
2018-06-05T08:05:41.459Z,40.80
2018-06-05T08:08:09.871Z,40.03
2018-06-05T08:10:38.267Z,37.60
2018-06-05T08:13:06.640Z,36.10
2018-06-05T08:15:35.016Z,39.30
2018-06-05T08:18:03.421Z,39.10
2018-06-05T08:20:31.820Z,39.20
2018-06-05T08:23:00.269Z,38.87
2018-06-05T08:25:28.676Z,39.60
2018-06-05T08:27:57.040Z,38.80
2018-06-05T08:30:25.448Z,38.90
2018-06-05T08:32:53.839Z,40.70
2018-06-05T08:35:22.211Z,39.60
2018-06-05T08:37:50.590Z,40.97
2018-06-05T08:40:19.254Z,40.90
2018-06-05T08:42:47.628Z,43.50
2018-06-05T08:45:16.042Z,40.27
2018-06-05T08:47:44.414Z,43.50
2018-06-05T08:50:12.807Z,42.53
2018-06-05T08:52:41.208Z,40.30
2018-06-05T08:55:09.605Z,45.20
2018-06-05T08:57:38.010Z,41.87
2018-06-05T09:00:06.456Z,42.53
2018-06-05T09:02:34.824Z,39.57
2018-06-05T09:05:03.350Z,38.30
2018-06-05T09:07:31.736Z,36.30
2018-06-05T09:10:00.090Z,37.17
2018-06-05T09:12:28.625Z,36.80
2018-06-05T09:14:56.976Z,35.70
2018-06-05T09:17:25.363Z,36.50
2018-06-05T09:19:53.752Z,37.90
2018-06-05T09:22:22.131Z,35.83
2018-06-05T09:24:50.487Z,40.80
2018-06-05T09:27:18.859Z,38.27
2018-06-05T09:29:47.241Z,40.07
2018-06-05T09:32:15.613Z,38.37
2018-06-05T09:34:44.080Z,38.50
2018-06-05T09:37:12.467Z,39.13
2018-06-05T09:39:40.929Z,39.30
2018-06-05T09:42:09.380Z,42.00
2018-06-05T09:44:37.841Z,38.40
2018-06-05T09:47:06.221Z,40.17
2018-06-05T09:49:34.632Z,42.67
2018-06-05T09:52:03.068Z,41.03
2018-06-05T09:54:31.438Z,43.77
2018-06-05T09:56:59.925Z,48.93
2018-06-05T09:59:28.300Z,49.30
2018-06-05T10:01:56.695Z,47.83
2018-06-05T10:04:25.099Z,47.67
2018-06-05T10:06:53.582Z,49.37
2018-06-05T10:09:22.043Z,48.20
2018-06-05T10:11:50.430Z,50.60
2018-06-05T10:14:19.646Z,47.10
2018-06-05T10:16:47.775Z,46.20
2018-06-05T10:19:16.159Z,46.97
2018-06-05T10:21:44.547Z,44.37
2018-06-05T10:24:12.908Z,49.00
2018-06-05T10:26:41.024Z,42.57
2018-06-05T10:29:09.391Z,44.37
2018-06-05T10:31:37.772Z,45.40
2018-06-05T10:34:06.180Z,47.23
2018-06-05T10:36:34.544Z,51.47
2018-06-05T10:39:03.015Z,51.87
2018-06-05T10:41:31.376Z,52.03
2018-06-05T10:43:59.783Z,53.23
2018-06-05T10:46:28.148Z,53.57
2018-06-05T10:48:56.250Z,51.73
2018-06-05T10:51:24.598Z,53.43
2018-06-05T10:53:52.967Z,52.63
2018-06-05T10:56:21.337Z,51.73
2018-06-05T10:58:49.875Z,50.83
2018-06-05T11:01:18.219Z,46.80
2018-06-05T11:03:46.695Z,48.33
2018-06-05T11:06:15.092Z,43.60
2018-06-05T11:08:43.481Z,46.70
2018-06-05T11:11:11.847Z,43.87
2018-06-05T11:13:40.255Z,47.90
2018-06-05T11:16:08.629Z,47.47
2018-06-05T11:18:37.019Z,45.67
2018-06-05T11:21:05.103Z,46.87
2018-06-05T11:23:33.487Z,47.63
2018-06-05T11:26:01.857Z,48.60
2018-06-05T11:28:30.241Z,46.60
2018-06-05T11:30:58.605Z,46.77
2018-06-05T11:33:26.983Z,46.47
2018-06-05T11:35:55.367Z,45.40
2018-06-05T11:38:23.744Z,43.90
2018-06-05T11:40:52.247Z,39.73
2018-06-05T11:43:20.611Z,44.10
2018-06-05T11:45:49.214Z,43.93
2018-06-05T11:48:17.620Z,45.00
2018-06-05T11:50:45.988Z,44.30
2018-06-05T11:53:14.368Z,46.70
2018-06-05T11:55:42.800Z,44.00
2018-06-05T11:58:11.245Z,42.20
2018-06-05T12:00:39.610Z,41.33
2018-06-05T12:03:07.988Z,42.30
2018-06-05T12:05:36.382Z,45.57
2018-06-05T12:08:04.787Z,42.07
2018-06-05T12:10:33.179Z,41.20
2018-06-05T12:13:01.607Z,45.30
2018-06-05T12:15:29.966Z,42.73
2018-06-05T12:17:58.384Z,43.20
2018-06-05T12:20:27.128Z,45.27
2018-06-05T12:22:55.508Z,45.47
2018-06-05T12:25:23.940Z,45.17
2018-06-05T12:27:52.327Z,46.03
2018-06-05T12:30:20.720Z,47.00
2018-06-05T12:32:49.120Z,44.07
2018-06-05T12:35:17.647Z,45.33
2018-06-05T12:37:46.034Z,45.00
2018-06-05T12:40:14.439Z,43.73
2018-06-05T12:42:42.831Z,39.67
2018-06-05T12:45:11.324Z,41.73
2018-06-05T12:47:39.679Z,43.50
2018-06-05T12:50:08.083Z,39.73
2018-06-05T12:52:36.457Z,41.40
2018-06-05T12:55:04.935Z,43.87
2018-06-05T12:57:33.031Z,44.93
2018-06-05T13:00:01.456Z,42.07
2018-06-05T13:02:29.935Z,41.47
2018-06-05T13:04:58.392Z,43.07
2018-06-05T13:07:26.773Z,41.50
2018-06-05T13:09:55.149Z,43.33
2018-06-05T13:12:23.516Z,45.00
2018-06-05T13:14:51.943Z,42.13
2018-06-05T13:17:20.425Z,40.83
2018-06-05T13:19:48.791Z,40.97
2018-06-05T13:22:17.305Z,42.63
2018-06-05T13:24:45.677Z,45.20
2018-06-05T13:27:14.031Z,43.27
2018-06-05T13:29:42.405Z,42.13
2018-06-05T13:32:10.499Z,48.23
2018-06-05T13:34:39.001Z,49.67
2018-06-05T13:37:07.176Z,47.70
2018-06-05T13:39:35.551Z,44.60
2018-06-05T13:42:03.914Z,44.03
2018-06-05T13:44:32.315Z,45.60
2018-06-05T13:47:00.712Z,48.00
2018-06-05T13:49:29.091Z,50.80
2018-06-05T13:51:57.451Z,47.23
2018-06-05T13:54:25.847Z,47.97
2018-06-05T13:56:54.244Z,51.00
2018-06-05T13:59:22.623Z,52.27
2018-06-05T14:01:50.982Z,52.07
2018-06-05T14:04:19.403Z,53.50
2018-06-05T14:06:47.795Z,49.30
2018-06-05T14:09:16.266Z,49.20
2018-06-05T14:11:44.559Z,50.87
2018-06-05T14:14:12.915Z,47.90
2018-06-05T14:16:41.332Z,52.63
2018-06-05T14:19:09.712Z,53.43
2018-06-05T14:21:37.802Z,51.13
2018-06-05T14:24:06.312Z,53.83
2018-06-05T14:26:34.671Z,52.60
2018-06-05T14:29:03.020Z,52.07
2018-06-05T14:31:31.429Z,51.13
2018-06-05T14:33:59.788Z,54.97
2018-06-05T14:36:28.168Z,53.40
2018-06-05T14:38:56.552Z,50.30
2018-06-05T14:41:26.079Z,52.10
2018-06-05T14:43:54.479Z,51.20
2018-06-05T14:46:22.861Z,52.40
2018-06-05T14:48:51.256Z,52.33
2018-06-05T14:51:19.639Z,55.03
2018-06-05T14:53:47.996Z,52.77
2018-06-05T14:56:16.421Z,55.07
2018-06-05T14:58:44.781Z,51.13
2018-06-05T15:01:13.191Z,53.87
2018-06-05T15:03:41.675Z,57.80
2018-06-05T15:06:10.109Z,53.77
2018-06-05T15:08:38.484Z,56.23
2018-06-05T15:11:06.853Z,55.37
2018-06-05T15:13:35.213Z,54.13
2018-06-05T15:16:03.628Z,54.30
2018-06-05T15:18:31.999Z,52.50
2018-06-05T15:21:00.388Z,53.77
2018-06-05T15:23:28.759Z,54.13
2018-06-05T15:25:57.140Z,51.37
2018-06-05T15:28:25.489Z,48.17
2018-06-05T15:30:53.902Z,49.40
2018-06-05T15:33:22.265Z,46.73
2018-06-05T15:35:50.654Z,49.13
2018-06-05T15:38:19.011Z,47.90
2018-06-05T15:40:47.390Z,48.97
2018-06-05T15:43:15.836Z,47.47
2018-06-05T15:45:44.228Z,47.40
2018-06-05T15:48:12.580Z,45.60
2018-06-05T15:50:41.061Z,44.27
2018-06-05T15:53:09.409Z,47.50
2018-06-05T15:55:37.806Z,47.50
2018-06-05T15:58:05.894Z,48.60
2018-06-05T16:00:34.003Z,46.57
2018-06-05T16:03:02.364Z,47.23
2018-06-05T16:05:30.761Z,48.30
2018-06-05T16:07:59.135Z,44.97
2018-06-05T16:10:27.489Z,46.03
2018-06-05T16:12:55.861Z,44.77
2018-06-05T16:15:24.244Z,48.07
2018-06-05T16:17:52.654Z,46.13
2018-06-05T16:20:21.049Z,48.70
2018-06-05T16:22:49.401Z,45.50
2018-06-05T16:25:17.507Z,48.50
2018-06-05T16:27:45.896Z,44.50
2018-06-05T16:30:14.253Z,40.13
2018-06-05T16:32:42.626Z,40.77
2018-06-05T16:35:11.012Z,42.43
2018-06-05T16:37:39.425Z,42.27
2018-06-05T16:40:07.800Z,39.33
2018-06-05T16:42:36.195Z,37.03
2018-06-05T16:45:04.583Z,42.60
2018-06-05T16:47:33.071Z,36.50
2018-06-05T16:50:01.410Z,39.20
2018-06-05T16:52:29.776Z,36.70
2018-06-05T16:54:58.128Z,34.20
2018-06-05T16:57:26.588Z,33.53
2018-06-05T16:59:54.666Z,33.13
2018-06-05T17:02:22.771Z,32.60
2018-06-05T17:04:53.356Z,31.63
2018-06-05T17:07:21.704Z,31.93
2018-06-05T17:09:50.069Z,31.20
2018-06-05T17:12:18.175Z,30.50
2018-06-05T17:14:46.239Z,30.63
2018-06-05T17:17:14.612Z,33.17
2018-06-05T17:19:42.972Z,29.63
2018-06-05T17:22:11.355Z,31.20
2018-06-05T17:24:39.708Z,28.70
2018-06-05T17:27:08.125Z,29.87
2018-06-05T17:29:36.514Z,30.53
2018-06-05T17:32:04.923Z,31.67
2018-06-05T17:34:33.291Z,31.20
2018-06-05T17:37:01.693Z,30.07
2018-06-05T17:39:30.051Z,32.53
2018-06-05T17:41:58.424Z,28.80
2018-06-05T17:44:26.787Z,28.27
2018-06-05T17:46:55.189Z,29.80
2018-06-05T17:49:23.562Z,28.60
2018-06-05T17:51:51.956Z,27.57
2018-06-05T17:54:20.307Z,27.97
2018-06-05T17:56:48.705Z,28.30
2018-06-05T17:59:17.059Z,27.33
2018-06-05T18:01:45.432Z,28.13
2018-06-05T18:04:13.805Z,29.20
2018-06-05T18:06:42.212Z,26.43
2018-06-05T18:09:10.651Z,28.57
2018-06-05T18:11:38.748Z,28.43
2018-06-05T18:14:07.179Z,29.10
2018-06-05T18:16:35.585Z,27.57
2018-06-05T18:19:03.989Z,30.97
2018-06-05T18:21:32.377Z,29.93
2018-06-05T18:24:00.811Z,32.07
2018-06-05T18:26:29.211Z,30.73
2018-06-05T18:28:57.660Z,29.80
2018-06-05T18:31:26.127Z,32.27
2018-06-05T18:33:54.580Z,32.30
2018-06-05T18:36:22.683Z,30.40
2018-06-05T18:38:51.115Z,30.70
2018-06-05T18:41:19.532Z,33.47
2018-06-05T18:43:47.929Z,32.23
2018-06-05T18:46:16.425Z,29.47
2018-06-05T18:48:44.800Z,31.20
2018-06-05T18:51:13.186Z,29.77
2018-06-05T18:53:41.579Z,30.27
2018-06-05T18:56:09.943Z,31.80
2018-06-05T18:58:38.419Z,32.40
2018-06-05T19:01:06.813Z,33.17
2018-06-05T19:03:35.204Z,33.60
2018-06-05T19:06:03.611Z,31.00
2018-06-05T19:08:32.033Z,32.17
2018-06-05T19:11:00.447Z,32.80
2018-06-05T19:13:28.861Z,33.70
2018-06-05T19:15:57.233Z,33.90
2018-06-05T19:18:25.335Z,34.23
2018-06-05T19:20:53.727Z,33.07
2018-06-05T19:23:22.133Z,33.07
2018-06-05T19:25:50.525Z,32.60
2018-06-05T19:28:18.920Z,34.07
2018-06-05T19:30:47.355Z,31.90
2018-06-05T19:33:15.793Z,33.77
2018-06-05T19:35:44.192Z,32.77
2018-06-05T19:38:12.579Z,33.70
2018-06-05T19:40:41.066Z,36.03
2018-06-05T19:43:09.468Z,36.40
2018-06-05T19:45:38.675Z,34.23
2018-06-05T19:48:07.084Z,34.80
2018-06-05T19:50:35.460Z,35.40
2018-06-05T19:53:03.856Z,34.80
2018-06-05T19:55:32.356Z,36.67
2018-06-05T19:58:00.848Z,35.90
2018-06-05T20:00:29.252Z,37.17
2018-06-05T20:02:57.656Z,34.97
2018-06-05T20:05:26.115Z,35.07
2018-06-05T20:07:54.471Z,35.40
2018-06-05T20:10:22.839Z,34.63
2018-06-05T20:12:51.354Z,36.63
2018-06-05T20:15:19.719Z,36.53
2018-06-05T20:17:48.120Z,34.77
2018-06-05T20:20:16.500Z,35.33
2018-06-05T20:22:44.861Z,34.90
2018-06-05T20:25:13.248Z,33.47
2018-06-05T20:27:41.611Z,35.17
2018-06-05T20:30:09.998Z,35.20
2018-06-05T20:32:38.367Z,33.73
2018-06-05T20:35:06.747Z,35.10
2018-06-05T20:37:35.129Z,33.77
2018-06-05T20:40:03.554Z,35.67
2018-06-05T20:42:31.925Z,35.10
2018-06-05T20:45:00.957Z,33.70
2018-06-05T20:47:29.336Z,34.20
2018-06-05T20:49:57.732Z,32.97
2018-06-05T20:52:26.096Z,34.80
2018-06-05T20:54:54.480Z,32.63
2018-06-05T20:57:22.834Z,31.80
2018-06-05T20:59:51.212Z,32.97
2018-06-05T21:02:19.584Z,34.60
2018-06-05T21:04:47.968Z,33.20
2018-06-05T21:07:16.464Z,34.80
2018-06-05T21:09:44.847Z,32.60
2018-06-05T21:12:13.210Z,33.43
2018-06-05T21:14:41.614Z,35.97
2018-06-05T21:17:09.973Z,33.80
2018-06-05T21:19:38.331Z,34.43
2018-06-05T21:22:06.700Z,34.60
2018-06-05T21:24:35.088Z,32.80
2018-06-05T21:27:03.468Z,34.80
2018-06-05T21:29:31.860Z,35.17
2018-06-05T21:32:00.216Z,33.57
2018-06-05T21:34:28.588Z,35.63
2018-06-05T21:36:56.960Z,32.90
2018-06-05T21:39:25.344Z,31.70
2018-06-05T21:41:53.705Z,33.53
2018-06-05T21:44:22.092Z,29.73
2018-06-05T21:46:50.472Z,30.60
2018-06-05T21:49:18.860Z,33.60
2018-06-05T21:51:47.230Z,34.83
2018-06-05T21:54:15.615Z,33.00
2018-06-05T21:56:44.016Z,33.40
2018-06-05T21:59:12.405Z,31.67
2018-06-05T22:01:40.763Z,31.30
2018-06-05T22:04:09.144Z,33.00
2018-06-05T22:06:37.525Z,32.57
2018-06-05T22:09:08.164Z,33.00
2018-06-05T22:11:36.544Z,35.20
2018-06-05T22:14:04.943Z,37.00
2018-06-05T22:16:33.394Z,32.00
2018-06-05T22:19:01.829Z,34.03
2018-06-05T22:21:30.233Z,32.90
2018-06-05T22:23:58.647Z,33.63
2018-06-05T22:26:27.032Z,36.23
2018-06-05T22:28:55.429Z,35.97
2018-06-05T22:31:23.811Z,34.50
2018-06-05T22:33:52.248Z,36.37
2018-06-05T22:36:20.648Z,36.17
2018-06-05T22:38:49.131Z,32.73
2018-06-05T22:41:17.560Z,33.43
2018-06-05T22:43:45.953Z,36.67
2018-06-05T22:46:14.378Z,36.37
2018-06-05T22:48:42.753Z,36.57
2018-06-05T22:51:11.187Z,39.93
2018-06-05T22:53:39.586Z,36.20
2018-06-05T22:56:08.067Z,37.63
2018-06-05T22:58:36.460Z,36.33
2018-06-05T23:01:04.873Z,35.17
2018-06-05T23:03:33.264Z,33.43
2018-06-05T23:06:01.656Z,37.27
2018-06-05T23:08:30.025Z,35.80
2018-06-05T23:10:58.419Z,35.30
2018-06-05T23:13:26.841Z,36.40
2018-06-05T23:15:55.221Z,38.10
2018-06-05T23:18:23.626Z,37.73
2018-06-05T23:20:52.152Z,35.20
2018-06-05T23:23:20.526Z,37.20
2018-06-05T23:25:48.916Z,34.90
2018-06-05T23:28:17.284Z,36.13
2018-06-05T23:30:46.370Z,36.43
2018-06-05T23:33:14.734Z,34.97
2018-06-05T23:35:43.157Z,34.40
2018-06-05T23:38:11.516Z,37.77
2018-06-05T23:40:39.907Z,36.90
2018-06-05T23:43:08.323Z,33.93
2018-06-05T23:45:36.720Z,37.13
2018-06-05T23:48:05.219Z,35.50
2018-06-05T23:50:33.623Z,36.73
2018-06-05T23:53:03.027Z,35.53
2018-06-05T23:55:31.409Z,37.37
2018-06-05T23:57:59.761Z,37.93
